Terminal Aerodrome Forecast
Issued by NWS El Paso, TX

Home | Current Version | Previous Version | Text Only | Print | Product List | Glossary On
Versions: 1 2 3 4 5 6 7 8 9 10 11 12 13
000
FTUS44 KEPZ 290520
TAFELP
TAF
KELP 290520Z 2906/3006 26020G30KT P6SM FEW040 SCT070 SCT100
     FM290700 26015G25KT P6SM FEW040 BKN070 BKN100
     FM290900 31012G20KT P6SM SCT035 BKN070 BKN100
     FM291500 28020G30KT P6SM SCT030 BKN060 BKN100
     FM291900 32020G30KT P6SM VCSH BKN040 BKN060 BKN100
     FM292300 36020G30KT P6SM SCT050 BKN070 BKN100
     FM300300 03012G20KT P6SM FEW040 SCT070 BKN100=

USA.gov is the U.S. government's official web portal to all federal, state and local government web resources and services.